Main page
METAR-TAF:

METAR-TAF

Airports :

Santa Maria Airport

Santa Maria, Rio Grande do Sul, Brazil

latitude: 29-43S, longitude: 053-42W, elevation: 85 m

Current weather observation

The report was made 1 hour and 59 minutes ago, at 03:00 UTC
Wind 5 kt from the East
Temperature 11°C
Humidity 76%
Pressure 1018 hPa
Visibility 10 km or more
no clouds below 1500 m and no cumulonimbus

METAR: SBSM 250300Z 10005KT CAVOK 11/07 Q1018

Time: 01:59 (04:59 UTC)

Forecast

The report was made 7 hours and 59 minutes ago, at 21:00 UTC
Forecast valid from 25 at 00 UTC to 25 at 12 UTC
Wind 10 kt from the East
Visibility 10 km or more
no clouds below 1500 m and no cumulonimbus
Becoming
from 25 at 05 UTC to 25 at 07 UTC
Visibility 10 km or more
Scattered clouds at a height of 1000 ft
Probability 30%
from 25 at 09 UTC to 25 at 11 UTC
Visibility: 4000 m
Broken clouds at a height of 700 ft
mist

TAF: SBSM 242100Z 2500/2512 10010KT CAVOK TN10/2505Z TX14/2512Z BECMG 2505/2507 9999 SCT010 PROB30 2509/2511 4000 BR BKN007 RMK PFP

Weather observations and forecasts of more than 4000 airports (METAR and TAF reports).

The available stations are represented by yellow and red dots on the map.

Hover mouse over dot to see the name of the station.

Then click to see weather observations and forecasts.

To change the map : click on the green buttons with a black cross to zoom in, on the green button with a dash to zoom out, or on the green arrows for adjacent maps.


METAR-TAF: